Madray Springs, Georgia
Current Conditions -  °F | °C
As of 8:35 AM on Saturday 20 Dec 2014 (Local Time) from KJES Reporting Station
Haze Haze  
Wind Chill: 54°   Ceiling: 8000
Heat Index: 54°   Visibility: 5mi
Dew Point: 54°   Wind: 0mph
Humidity: 100%   Direction: NA
Pressure: 30.16"   Gusts: NA
Location:  31.5041°N, 81.8277°W
Report Text: KJES 201335Z AUTO 00000KT 5SM BR OVC080 12/12 A3016 RMK AO2
Loading
Personal Weather Stations






























Interactive Weather Map New forecast layout! Learn more

10-Day Weather Forecast

Advertisements
Track Severe Weather on mobile